sensor_id;sensor_type;location;lat;lon;timestamp;P1;durP1;ratioP1;P2;durP2;ratioP2
19171;SDS011;9718;52.200;21.052;2022-10-22T00:01:17;33.00;;;17.40;;
19171;SDS011;9718;52.200;21.052;2022-10-22T00:03:46;26.13;;;15.13;;
19171;SDS011;9718;52.200;21.052;2022-10-22T00:06:14;30.90;;;16.00;;
19171;SDS011;9718;52.200;21.052;2022-10-22T00:08:45;30.30;;;15.53;;
19171;SDS011;9718;52.200;21.052;2022-10-22T00:11:14;30.50;;;15.63;;
19171;SDS011;9718;52.200;21.052;2022-10-22T00:13:44;30.00;;;15.57;;
19171;SDS011;9718;52.200;21.052;2022-10-22T00:16:13;28.87;;;16.03;;
19171;SDS011;9718;52.200;21.052;2022-10-22T00:18:41;29.10;;;15.30;;
19171;SDS011;9718;52.200;21.052;2022-10-22T00:21:10;29.47;;;15.50;;
19171;SDS011;9718;52.200;21.052;2022-10-22T00:23:39;31.17;;;16.13;;
19171;SDS011;9718;52.200;21.052;2022-10-22T00:26:10;32.73;;;15.80;;
19171;SDS011;9718;52.200;21.052;2022-10-22T00:28:42;25.80;;;14.43;;
19171;SDS011;9718;52.200;21.052;2022-10-22T00:31:10;30.87;;;15.33;;
19171;SDS011;9718;52.200;21.052;2022-10-22T00:33:40;27.40;;;14.70;;
19171;SDS011;9718;52.200;21.052;2022-10-22T00:36:08;27.73;;;14.73;;
19171;SDS011;9718;52.200;21.052;2022-10-22T00:38:36;31.50;;;15.67;;
19171;SDS011;9718;52.200;21.052;2022-10-22T00:41:05;30.93;;;14.97;;
19171;SDS011;9718;52.200;21.052;2022-10-22T00:43:33;28.80;;;14.77;;
19171;SDS011;9718;52.200;21.052;2022-10-22T00:46:01;27.87;;;15.37;;
19171;SDS011;9718;52.200;21.052;2022-10-22T00:48:30;31.40;;;15.93;;
19171;SDS011;9718;52.200;21.052;2022-10-22T00:51:03;31.90;;;15.70;;
19171;SDS011;9718;52.200;21.052;2022-10-22T00:53:38;28.30;;;15.33;;
19171;SDS011;9718;52.200;21.052;2022-10-22T00:56:14;32.70;;;15.67;;
19171;SDS011;9718;52.200;21.052;2022-10-22T00:58:44;28.80;;;15.77;;
19171;SDS011;9718;52.200;21.052;2022-10-22T01:01:17;26.50;;;15.00;;
19171;SDS011;9718;52.200;21.052;2022-10-22T01:03:51;30.80;;;15.53;;
19171;SDS011;9718;52.200;21.052;2022-10-22T01:06:23;27.50;;;14.80;;
19171;SDS011;9718;52.200;21.052;2022-10-22T01:22:39;29.23;;;16.43;;
19171;SDS011;9718;52.200;21.052;2022-10-22T01:25:33;27.50;;;15.10;;
19171;SDS011;9718;52.200;21.052;2022-10-22T01:28:22;29.90;;;15.80;;
19171;SDS011;9718;52.200;21.052;2022-10-22T01:31:11;29.97;;;15.20;;
19171;SDS011;9718;52.200;21.052;2022-10-22T01:33:43;28.47;;;15.83;;
19171;SDS011;9718;52.200;21.052;2022-10-22T01:36:13;30.47;;;14.97;;
19171;SDS011;9718;52.200;21.052;2022-10-22T01:38:45;30.47;;;15.03;;
19171;SDS011;9718;52.200;21.052;2022-10-22T01:41:16;30.67;;;15.93;;
19171;SDS011;9718;52.200;21.052;2022-10-22T01:43:45;28.03;;;15.77;;
19171;SDS011;9718;52.200;21.052;2022-10-22T01:46:13;29.73;;;16.10;;
19171;SDS011;9718;52.200;21.052;2022-10-22T01:51:37;25.87;;;15.57;;
19171;SDS011;9718;52.200;21.052;2022-10-22T01:54:42;31.03;;;15.20;;
19171;SDS011;9718;52.200;21.052;2022-10-22T02:00:14;25.20;;;15.53;;
19171;SDS011;9718;52.200;21.052;2022-10-22T02:05:39;28.20;;;16.13;;
19171;SDS011;9718;52.200;21.052;2022-10-22T02:08:16;32.03;;;16.20;;
19171;SDS011;9718;52.200;21.052;2022-10-22T02:10:49;30.07;;;15.57;;
19171;SDS011;9718;52.200;21.052;2022-10-22T02:13:22;27.63;;;15.40;;
19171;SDS011;9718;52.200;21.052;2022-10-22T02:15:54;30.90;;;15.17;;
19171;SDS011;9718;52.200;21.052;2022-10-22T02:18:23;28.50;;;16.20;;
19171;SDS011;9718;52.200;21.052;2022-10-22T02:20:57;31.13;;;16.13;;
19171;SDS011;9718;52.200;21.052;2022-10-22T02:23:30;28.43;;;16.07;;
19171;SDS011;9718;52.200;21.052;2022-10-22T02:26:03;29.83;;;15.83;;
19171;SDS011;9718;52.200;21.052;2022-10-22T02:29:06;29.90;;;16.70;;
19171;SDS011;9718;52.200;21.052;2022-10-22T02:31:37;29.53;;;17.20;;
19171;SDS011;9718;52.200;21.052;2022-10-22T02:34:10;33.60;;;15.73;;
19171;SDS011;9718;52.200;21.052;2022-10-22T02:36:42;29.57;;;16.13;;
19171;SDS011;9718;52.200;21.052;2022-10-22T02:39:15;27.60;;;16.13;;
19171;SDS011;9718;52.200;21.052;2022-10-22T02:41:45;25.17;;;15.47;;
19171;SDS011;9718;52.200;21.052;2022-10-22T02:44:12;27.50;;;15.23;;
19171;SDS011;9718;52.200;21.052;2022-10-22T02:46:41;28.60;;;15.63;;
19171;SDS011;9718;52.200;21.052;2022-10-22T02:49:09;29.93;;;16.47;;
19171;SDS011;9718;52.200;21.052;2022-10-22T02:51:37;30.07;;;16.33;;
19171;SDS011;9718;52.200;21.052;2022-10-22T02:54:04;33.20;;;17.13;;
19171;SDS011;9718;52.200;21.052;2022-10-22T02:56:32;28.03;;;16.13;;
19171;SDS011;9718;52.200;21.052;2022-10-22T02:58:59;30.40;;;17.07;;
19171;SDS011;9718;52.200;21.052;2022-10-22T03:01:27;33.50;;;17.13;;
19171;SDS011;9718;52.200;21.052;2022-10-22T03:03:54;30.30;;;16.50;;
19171;SDS011;9718;52.200;21.052;2022-10-22T03:06:22;29.37;;;16.73;;
19171;SDS011;9718;52.200;21.052;2022-10-22T03:08:49;29.50;;;17.33;;
19171;SDS011;9718;52.200;21.052;2022-10-22T03:11:16;30.03;;;16.67;;
19171;SDS011;9718;52.200;21.052;2022-10-22T03:13:44;33.87;;;17.63;;
19171;SDS011;9718;52.200;21.052;2022-10-22T03:16:13;37.63;;;19.00;;
19171;SDS011;9718;52.200;21.052;2022-10-22T03:18:40;30.87;;;17.03;;
19171;SDS011;9718;52.200;21.052;2022-10-22T03:21:10;29.37;;;16.53;;
19171;SDS011;9718;52.200;21.052;2022-10-22T03:24:02;34.10;;;18.57;;
19171;SDS011;9718;52.200;21.052;2022-10-22T03:26:37;34.30;;;17.57;;
19171;SDS011;9718;52.200;21.052;2022-10-22T03:29:07;29.60;;;17.07;;
19171;SDS011;9718;52.200;21.052;2022-10-22T03:31:37;33.43;;;17.37;;
19171;SDS011;9718;52.200;21.052;2022-10-22T03:34:05;32.87;;;17.63;;
19171;SDS011;9718;52.200;21.052;2022-10-22T03:36:33;32.37;;;16.93;;
19171;SDS011;9718;52.200;21.052;2022-10-22T03:39:02;31.30;;;17.27;;
19171;SDS011;9718;52.200;21.052;2022-10-22T03:41:31;27.97;;;17.20;;
19171;SDS011;9718;52.200;21.052;2022-10-22T03:44:00;29.83;;;16.67;;
19171;SDS011;9718;52.200;21.052;2022-10-22T03:46:31;30.73;;;17.30;;
19171;SDS011;9718;52.200;21.052;2022-10-22T03:48:59;33.60;;;17.00;;
19171;SDS011;9718;52.200;21.052;2022-10-22T03:51:28;32.30;;;17.37;;
19171;SDS011;9718;52.200;21.052;2022-10-22T03:53:55;37.13;;;17.10;;
19171;SDS011;9718;52.200;21.052;2022-10-22T03:56:24;30.07;;;17.13;;
19171;SDS011;9718;52.200;21.052;2022-10-22T03:58:54;32.37;;;16.83;;
19171;SDS011;9718;52.200;21.052;2022-10-22T04:01:23;31.63;;;17.17;;
19171;SDS011;9718;52.200;21.052;2022-10-22T04:03:53;31.60;;;17.77;;
19171;SDS011;9718;52.200;21.052;2022-10-22T04:06:22;28.67;;;16.70;;
19171;SDS011;9718;52.200;21.052;2022-10-22T04:08:49;27.50;;;16.23;;
19171;SDS011;9718;52.200;21.052;2022-10-22T04:11:18;28.07;;;16.00;;
19171;SDS011;9718;52.200;21.052;2022-10-22T04:13:46;28.10;;;16.17;;
19171;SDS011;9718;52.200;21.052;2022-10-22T04:16:15;30.17;;;17.43;;
19171;SDS011;9718;52.200;21.052;2022-10-22T04:18:45;32.87;;;16.57;;
19171;SDS011;9718;52.200;21.052;2022-10-22T04:21:15;25.67;;;15.70;;
19171;SDS011;9718;52.200;21.052;2022-10-22T04:23:49;26.10;;;15.90;;
19171;SDS011;9718;52.200;21.052;2022-10-22T04:26:21;30.73;;;15.73;;
19171;SDS011;9718;52.200;21.052;2022-10-22T04:28:50;30.10;;;16.47;;
19171;SDS011;9718;52.200;21.052;2022-10-22T04:31:19;29.60;;;15.50;;
19171;SDS011;9718;52.200;21.052;2022-10-22T04:33:54;31.07;;;16.03;;
19171;SDS011;9718;52.200;21.052;2022-10-22T04:36:24;28.80;;;17.53;;
19171;SDS011;9718;52.200;21.052;2022-10-22T04:38:57;31.23;;;15.40;;
19171;SDS011;9718;52.200;21.052;2022-10-22T04:41:30;27.27;;;15.40;;
19171;SDS011;9718;52.200;21.052;2022-10-22T04:44:02;30.87;;;14.97;;
19171;SDS011;9718;52.200;21.052;2022-10-22T04:46:32;29.27;;;15.20;;
19171;SDS011;9718;52.200;21.052;2022-10-22T04:49:01;29.90;;;15.30;;
19171;SDS011;9718;52.200;21.052;2022-10-22T04:51:31;30.20;;;16.40;;
19171;SDS011;9718;52.200;21.052;2022-10-22T04:53:59;28.07;;;15.60;;
19171;SDS011;9718;52.200;21.052;2022-10-22T04:56:28;29.10;;;16.03;;
19171;SDS011;9718;52.200;21.052;2022-10-22T04:58:58;27.47;;;16.07;;
19171;SDS011;9718;52.200;21.052;2022-10-22T05:01:29;31.97;;;16.80;;
19171;SDS011;9718;52.200;21.052;2022-10-22T05:04:05;28.87;;;15.57;;
19171;SDS011;9718;52.200;21.052;2022-10-22T05:06:34;27.73;;;16.33;;
19171;SDS011;9718;52.200;21.052;2022-10-22T05:09:04;29.07;;;15.93;;
19171;SDS011;9718;52.200;21.052;2022-10-22T05:11:35;26.30;;;15.57;;
19171;SDS011;9718;52.200;21.052;2022-10-22T05:14:05;32.07;;;16.27;;
19171;SDS011;9718;52.200;21.052;2022-10-22T05:16:34;31.30;;;16.63;;
19171;SDS011;9718;52.200;21.052;2022-10-22T05:19:04;29.63;;;16.63;;
19171;SDS011;9718;52.200;21.052;2022-10-22T05:21:33;34.07;;;16.57;;
19171;SDS011;9718;52.200;21.052;2022-10-22T05:24:01;32.37;;;16.93;;
19171;SDS011;9718;52.200;21.052;2022-10-22T05:26:30;27.77;;;16.47;;
19171;SDS011;9718;52.200;21.052;2022-10-22T05:28:57;29.27;;;16.57;;
19171;SDS011;9718;52.200;21.052;2022-10-22T05:31:25;31.47;;;17.07;;
19171;SDS011;9718;52.200;21.052;2022-10-22T05:33:55;29.67;;;16.17;;
19171;SDS011;9718;52.200;21.052;2022-10-22T05:36:23;35.97;;;18.00;;
19171;SDS011;9718;52.200;21.052;2022-10-22T05:38:51;28.07;;;16.83;;
19171;SDS011;9718;52.200;21.052;2022-10-22T05:41:20;28.57;;;16.27;;
19171;SDS011;9718;52.200;21.052;2022-10-22T05:43:49;31.17;;;16.60;;
19171;SDS011;9718;52.200;21.052;2022-10-22T05:46:20;32.83;;;17.10;;
19171;SDS011;9718;52.200;21.052;2022-10-22T05:48:57;32.03;;;16.37;;
19171;SDS011;9718;52.200;21.052;2022-10-22T05:51:29;28.30;;;16.47;;
19171;SDS011;9718;52.200;21.052;2022-10-22T05:54:00;32.70;;;16.93;;
19171;SDS011;9718;52.200;21.052;2022-10-22T05:56:30;28.57;;;15.90;;
19171;SDS011;9718;52.200;21.052;2022-10-22T05:58:59;31.57;;;16.87;;
19171;SDS011;9718;52.200;21.052;2022-10-22T06:01:30;29.93;;;17.03;;
19171;SDS011;9718;52.200;21.052;2022-10-22T06:04:02;31.20;;;16.07;;
19171;SDS011;9718;52.200;21.052;2022-10-22T06:06:33;27.00;;;16.73;;
19171;SDS011;9718;52.200;21.052;2022-10-22T06:09:04;28.10;;;16.60;;
19171;SDS011;9718;52.200;21.052;2022-10-22T06:11:38;29.17;;;16.30;;
19171;SDS011;9718;52.200;21.052;2022-10-22T06:14:06;29.17;;;16.67;;
19171;SDS011;9718;52.200;21.052;2022-10-22T06:16:36;28.50;;;16.10;;
19171;SDS011;9718;52.200;21.052;2022-10-22T06:19:04;30.03;;;17.20;;
19171;SDS011;9718;52.200;21.052;2022-10-22T06:21:33;28.80;;;16.67;;
19171;SDS011;9718;52.200;21.052;2022-10-22T06:24:01;33.97;;;15.40;;
19171;SDS011;9718;52.200;21.052;2022-10-22T06:26:29;32.23;;;17.27;;
19171;SDS011;9718;52.200;21.052;2022-10-22T06:28:57;28.10;;;16.97;;
19171;SDS011;9718;52.200;21.052;2022-10-22T06:31:25;29.97;;;15.57;;
19171;SDS011;9718;52.200;21.052;2022-10-22T06:33:57;29.17;;;16.23;;
19171;SDS011;9718;52.200;21.052;2022-10-22T06:36:25;28.53;;;15.90;;
19171;SDS011;9718;52.200;21.052;2022-10-22T06:38:53;31.67;;;16.90;;
19171;SDS011;9718;52.200;21.052;2022-10-22T06:41:23;28.90;;;16.77;;
19171;SDS011;9718;52.200;21.052;2022-10-22T06:43:55;33.17;;;16.03;;
19171;SDS011;9718;52.200;21.052;2022-10-22T06:46:23;29.57;;;16.93;;
19171;SDS011;9718;52.200;21.052;2022-10-22T06:48:52;27.80;;;15.80;;
19171;SDS011;9718;52.200;21.052;2022-10-22T06:51:22;29.43;;;16.20;;
19171;SDS011;9718;52.200;21.052;2022-10-22T06:53:49;28.23;;;16.10;;
19171;SDS011;9718;52.200;21.052;2022-10-22T06:56:18;30.07;;;15.17;;
19171;SDS011;9718;52.200;21.052;2022-10-22T06:58:50;24.37;;;14.57;;
19171;SDS011;9718;52.200;21.052;2022-10-22T07:01:20;33.23;;;15.77;;
19171;SDS011;9718;52.200;21.052;2022-10-22T07:03:51;27.03;;;15.70;;
19171;SDS011;9718;52.200;21.052;2022-10-22T07:06:20;33.33;;;16.83;;
19171;SDS011;9718;52.200;21.052;2022-10-22T07:08:48;28.47;;;15.83;;
19171;SDS011;9718;52.200;21.052;2022-10-22T07:11:17;32.10;;;15.47;;
19171;SDS011;9718;52.200;21.052;2022-10-22T07:13:46;26.03;;;16.30;;
19171;SDS011;9718;52.200;21.052;2022-10-22T07:16:13;25.60;;;14.23;;
19171;SDS011;9718;52.200;21.052;2022-10-22T07:18:41;24.93;;;14.63;;
19171;SDS011;9718;52.200;21.052;2022-10-22T07:21:10;25.73;;;14.47;;
19171;SDS011;9718;52.200;21.052;2022-10-22T07:23:37;24.50;;;14.90;;
19171;SDS011;9718;52.200;21.052;2022-10-22T07:26:05;25.73;;;13.97;;
19171;SDS011;9718;52.200;21.052;2022-10-22T07:28:33;29.33;;;14.50;;
19171;SDS011;9718;52.200;21.052;2022-10-22T07:31:02;27.23;;;14.13;;
19171;SDS011;9718;52.200;21.052;2022-10-22T07:33:29;27.00;;;14.77;;
19171;SDS011;9718;52.200;21.052;2022-10-22T07:36:00;25.30;;;14.70;;
19171;SDS011;9718;52.200;21.052;2022-10-22T07:38:28;25.70;;;13.63;;
19171;SDS011;9718;52.200;21.052;2022-10-22T07:40:57;30.03;;;14.30;;
19171;SDS011;9718;52.200;21.052;2022-10-22T07:43:24;25.80;;;13.87;;
19171;SDS011;9718;52.200;21.052;2022-10-22T07:45:52;26.83;;;14.47;;
19171;SDS011;9718;52.200;21.052;2022-10-22T07:48:21;26.57;;;13.73;;
19171;SDS011;9718;52.200;21.052;2022-10-22T07:50:49;27.57;;;14.53;;
19171;SDS011;9718;52.200;21.052;2022-10-22T07:53:17;27.37;;;15.23;;
19171;SDS011;9718;52.200;21.052;2022-10-22T07:55:46;24.87;;;13.90;;
19171;SDS011;9718;52.200;21.052;2022-10-22T07:58:15;26.47;;;14.70;;
19171;SDS011;9718;52.200;21.052;2022-10-22T08:00:45;25.43;;;14.03;;
19171;SDS011;9718;52.200;21.052;2022-10-22T08:03:13;27.30;;;14.37;;
19171;SDS011;9718;52.200;21.052;2022-10-22T08:05:41;25.47;;;14.53;;
19171;SDS011;9718;52.200;21.052;2022-10-22T08:08:11;27.47;;;14.53;;
19171;SDS011;9718;52.200;21.052;2022-10-22T08:10:39;25.00;;;14.27;;
19171;SDS011;9718;52.200;21.052;2022-10-22T08:13:07;27.03;;;14.33;;
19171;SDS011;9718;52.200;21.052;2022-10-22T08:15:34;29.33;;;14.80;;
19171;SDS011;9718;52.200;21.052;2022-10-22T08:18:01;26.27;;;14.47;;
19171;SDS011;9718;52.200;21.052;2022-10-22T08:20:29;26.43;;;14.57;;
19171;SDS011;9718;52.200;21.052;2022-10-22T08:22:56;26.30;;;14.73;;
19171;SDS011;9718;52.200;21.052;2022-10-22T08:25:24;27.00;;;15.13;;
19171;SDS011;9718;52.200;21.052;2022-10-22T08:27:51;25.00;;;13.77;;
19171;SDS011;9718;52.200;21.052;2022-10-22T08:30:18;27.87;;;13.93;;
19171;SDS011;9718;52.200;21.052;2022-10-22T08:32:45;27.60;;;14.47;;
19171;SDS011;9718;52.200;21.052;2022-10-22T08:35:17;26.57;;;14.03;;
19171;SDS011;9718;52.200;21.052;2022-10-22T08:37:44;28.77;;;13.97;;
19171;SDS011;9718;52.200;21.052;2022-10-22T08:40:18;23.50;;;13.43;;
19171;SDS011;9718;52.200;21.052;2022-10-22T08:45:49;26.67;;;13.53;;
19171;SDS011;9718;52.200;21.052;2022-10-22T08:51:16;28.10;;;13.27;;
19171;SDS011;9718;52.200;21.052;2022-10-22T08:53:52;27.97;;;14.53;;
19171;SDS011;9718;52.200;21.052;2022-10-22T08:56:31;25.73;;;12.53;;
19171;SDS011;9718;52.200;21.052;2022-10-22T08:59:16;26.70;;;12.80;;
19171;SDS011;9718;52.200;21.052;2022-10-22T09:01:51;22.90;;;13.00;;
19171;SDS011;9718;52.200;21.052;2022-10-22T09:04:27;25.63;;;12.93;;
19171;SDS011;9718;52.200;21.052;2022-10-22T09:06:58;22.90;;;13.47;;
19171;SDS011;9718;52.200;21.052;2022-10-22T09:09:26;22.90;;;12.87;;
19171;SDS011;9718;52.200;21.052;2022-10-22T09:12:02;23.47;;;13.40;;
19171;SDS011;9718;52.200;21.052;2022-10-22T09:14:30;26.30;;;13.17;;
19171;SDS011;9718;52.200;21.052;2022-10-22T09:20:08;29.93;;;12.80;;
19171;SDS011;9718;52.200;21.052;2022-10-22T09:25:23;24.57;;;13.57;;
19171;SDS011;9718;52.200;21.052;2022-10-22T09:27:52;25.60;;;14.10;;
19171;SDS011;9718;52.200;21.052;2022-10-22T09:30:24;24.57;;;13.07;;
19171;SDS011;9718;52.200;21.052;2022-10-22T09:33:01;23.47;;;12.77;;
19171;SDS011;9718;52.200;21.052;2022-10-22T09:38:27;23.13;;;13.30;;
19171;SDS011;9718;52.200;21.052;2022-10-22T09:40:56;26.67;;;13.27;;
19171;SDS011;9718;52.200;21.052;2022-10-22T09:43:25;25.10;;;14.17;;
19171;SDS011;9718;52.200;21.052;2022-10-22T09:45:56;28.47;;;14.77;;
19171;SDS011;9718;52.200;21.052;2022-10-22T09:48:30;26.63;;;13.80;;
19171;SDS011;9718;52.200;21.052;2022-10-22T09:51:04;22.70;;;13.83;;
19171;SDS011;9718;52.200;21.052;2022-10-22T09:53:44;26.77;;;13.77;;
19171;SDS011;9718;52.200;21.052;2022-10-22T09:58:51;30.43;;;14.40;;
19171;SDS011;9718;52.200;21.052;2022-10-22T10:01:21;29.10;;;13.87;;
19171;SDS011;9718;52.200;21.052;2022-10-22T10:04:01;27.03;;;13.17;;
19171;SDS011;9718;52.200;21.052;2022-10-22T10:06:35;28.10;;;14.30;;
19171;SDS011;9718;52.200;21.052;2022-10-22T10:09:15;30.63;;;14.10;;
19171;SDS011;9718;52.200;21.052;2022-10-22T10:11:45;30.63;;;15.10;;
19171;SDS011;9718;52.200;21.052;2022-10-22T10:16:56;31.47;;;15.87;;
19171;SDS011;9718;52.200;21.052;2022-10-22T10:30:46;36.50;;;14.93;;
19171;SDS011;9718;52.200;21.052;2022-10-22T10:36:32;29.83;;;15.33;;
19171;SDS011;9718;52.200;21.052;2022-10-22T10:39:09;27.07;;;13.93;;
19171;SDS011;9718;52.200;21.052;2022-10-22T10:41:51;28.67;;;14.97;;
19171;SDS011;9718;52.200;21.052;2022-10-22T10:44:36;30.43;;;14.07;;
19171;SDS011;9718;52.200;21.052;2022-10-22T10:49:50;24.80;;;13.80;;
19171;SDS011;9718;52.200;21.052;2022-10-22T10:52:35;24.13;;;13.90;;
19171;SDS011;9718;52.200;21.052;2022-10-22T10:57:48;28.57;;;14.80;;
19171;SDS011;9718;52.200;21.052;2022-10-22T11:00:40;25.20;;;14.40;;
19171;SDS011;9718;52.200;21.052;2022-10-22T11:06:19;29.07;;;15.70;;
19171;SDS011;9718;52.200;21.052;2022-10-22T11:08:58;26.73;;;14.73;;
19171;SDS011;9718;52.200;21.052;2022-10-22T11:11:32;29.43;;;16.13;;
19171;SDS011;9718;52.200;21.052;2022-10-22T11:14:02;27.70;;;15.63;;
19171;SDS011;9718;52.200;21.052;2022-10-22T11:16:48;29.93;;;15.60;;
19171;SDS011;9718;52.200;21.052;2022-10-22T11:19:28;30.97;;;15.33;;
19171;SDS011;9718;52.200;21.052;2022-10-22T11:22:31;30.03;;;15.63;;
19171;SDS011;9718;52.200;21.052;2022-10-22T11:25:05;28.70;;;15.03;;
19171;SDS011;9718;52.200;21.052;2022-10-22T11:27:43;32.07;;;16.03;;
19171;SDS011;9718;52.200;21.052;2022-10-22T11:30:19;29.83;;;15.90;;
19171;SDS011;9718;52.200;21.052;2022-10-22T11:32:55;27.33;;;14.37;;
19171;SDS011;9718;52.200;21.052;2022-10-22T11:35:27;30.47;;;15.37;;
19171;SDS011;9718;52.200;21.052;2022-10-22T11:37:58;26.00;;;15.23;;
19171;SDS011;9718;52.200;21.052;2022-10-22T11:42:56;27.17;;;14.43;;
19171;SDS011;9718;52.200;21.052;2022-10-22T11:47:52;29.80;;;16.10;;
19171;SDS011;9718;52.200;21.052;2022-10-22T12:03:37;29.40;;;15.53;;
19171;SDS011;9718;52.200;21.052;2022-10-22T12:08:45;33.27;;;15.73;;
19171;SDS011;9718;52.200;21.052;2022-10-22T12:11:19;33.60;;;14.83;;
19171;SDS011;9718;52.200;21.052;2022-10-22T12:14:12;25.97;;;14.10;;
19171;SDS011;9718;52.200;21.052;2022-10-22T12:16:46;30.07;;;15.37;;
19171;SDS011;9718;52.200;21.052;2022-10-22T12:21:53;28.60;;;14.87;;
19171;SDS011;9718;52.200;21.052;2022-10-22T12:24:28;29.80;;;15.47;;
19171;SDS011;9718;52.200;21.052;2022-10-22T12:26:59;25.67;;;14.80;;
19171;SDS011;9718;52.200;21.052;2022-10-22T12:29:26;28.90;;;15.90;;
19171;SDS011;9718;52.200;21.052;2022-10-22T12:32:01;31.23;;;15.33;;
19171;SDS011;9718;52.200;21.052;2022-10-22T12:34:29;30.77;;;16.50;;
19171;SDS011;9718;52.200;21.052;2022-10-22T12:36:56;30.03;;;15.83;;
19171;SDS011;9718;52.200;21.052;2022-10-22T12:39:26;26.77;;;15.37;;
19171;SDS011;9718;52.200;21.052;2022-10-22T12:41:53;29.73;;;15.03;;
19171;SDS011;9718;52.200;21.052;2022-10-22T12:44:20;29.23;;;16.47;;
19171;SDS011;9718;52.200;21.052;2022-10-22T12:46:48;26.77;;;16.07;;
19171;SDS011;9718;52.200;21.052;2022-10-22T12:49:24;28.97;;;15.53;;
19171;SDS011;9718;52.200;21.052;2022-10-22T12:51:59;31.27;;;15.53;;
19171;SDS011;9718;52.200;21.052;2022-10-22T12:54:30;31.70;;;15.83;;
19171;SDS011;9718;52.200;21.052;2022-10-22T12:56:59;28.73;;;16.13;;
19171;SDS011;9718;52.200;21.052;2022-10-22T12:59:34;29.97;;;14.80;;
19171;SDS011;9718;52.200;21.052;2022-10-22T13:02:10;30.60;;;14.73;;
19171;SDS011;9718;52.200;21.052;2022-10-22T13:07:49;29.37;;;15.63;;
19171;SDS011;9718;52.200;21.052;2022-10-22T13:10:20;28.93;;;15.37;;
19171;SDS011;9718;52.200;21.052;2022-10-22T13:12:54;33.63;;;15.63;;
19171;SDS011;9718;52.200;21.052;2022-10-22T13:18:02;28.67;;;15.80;;
19171;SDS011;9718;52.200;21.052;2022-10-22T13:20:29;34.00;;;15.80;;
19171;SDS011;9718;52.200;21.052;2022-10-22T13:23:00;30.33;;;17.17;;
19171;SDS011;9718;52.200;21.052;2022-10-22T13:25:29;31.63;;;16.73;;
19171;SDS011;9718;52.200;21.052;2022-10-22T13:32:56;32.37;;;17.03;;
19171;SDS011;9718;52.200;21.052;2022-10-22T13:35:27;29.13;;;15.57;;
19171;SDS011;9718;52.200;21.052;2022-10-22T13:38:02;29.93;;;16.23;;
19171;SDS011;9718;52.200;21.052;2022-10-22T13:40:37;29.40;;;16.10;;
19171;SDS011;9718;52.200;21.052;2022-10-22T13:43:04;31.77;;;16.43;;
19171;SDS011;9718;52.200;21.052;2022-10-22T13:45:31;30.67;;;16.10;;
19171;SDS011;9718;52.200;21.052;2022-10-22T13:47:58;30.07;;;16.73;;
19171;SDS011;9718;52.200;21.052;2022-10-22T13:50:25;30.13;;;15.90;;
19171;SDS011;9718;52.200;21.052;2022-10-22T13:52:53;28.93;;;16.53;;
19171;SDS011;9718;52.200;21.052;2022-10-22T13:55:25;30.23;;;16.50;;
19171;SDS011;9718;52.200;21.052;2022-10-22T13:57:55;36.30;;;17.37;;
19171;SDS011;9718;52.200;21.052;2022-10-22T14:00:31;33.10;;;17.30;;
19171;SDS011;9718;52.200;21.052;2022-10-22T14:02:59;34.07;;;16.23;;
19171;SDS011;9718;52.200;21.052;2022-10-22T14:05:26;32.30;;;16.83;;
19171;SDS011;9718;52.200;21.052;2022-10-22T14:07:53;38.00;;;18.07;;
19171;SDS011;9718;52.200;21.052;2022-10-22T14:10:21;31.67;;;15.93;;
19171;SDS011;9718;52.200;21.052;2022-10-22T14:12:50;33.43;;;17.47;;
19171;SDS011;9718;52.200;21.052;2022-10-22T14:15:22;38.23;;;18.23;;
19171;SDS011;9718;52.200;21.052;2022-10-22T14:17:56;35.10;;;17.53;;
19171;SDS011;9718;52.200;21.052;2022-10-22T14:20:26;33.90;;;17.93;;
19171;SDS011;9718;52.200;21.052;2022-10-22T14:22:55;33.10;;;16.93;;
19171;SDS011;9718;52.200;21.052;2022-10-22T14:25:23;29.90;;;17.07;;
19171;SDS011;9718;52.200;21.052;2022-10-22T14:27:51;29.47;;;16.50;;
19171;SDS011;9718;52.200;21.052;2022-10-22T14:30:19;34.10;;;17.43;;
19171;SDS011;9718;52.200;21.052;2022-10-22T14:32:48;36.70;;;18.47;;
19171;SDS011;9718;52.200;21.052;2022-10-22T14:35:16;34.47;;;17.90;;
19171;SDS011;9718;52.200;21.052;2022-10-22T14:37:46;34.70;;;17.10;;
19171;SDS011;9718;52.200;21.052;2022-10-22T14:40:14;34.97;;;18.83;;
19171;SDS011;9718;52.200;21.052;2022-10-22T14:42:44;32.77;;;18.70;;
19171;SDS011;9718;52.200;21.052;2022-10-22T14:45:16;35.80;;;18.57;;
19171;SDS011;9718;52.200;21.052;2022-10-22T14:47:44;35.30;;;17.80;;
19171;SDS011;9718;52.200;21.052;2022-10-22T14:50:10;34.87;;;18.40;;
19171;SDS011;9718;52.200;21.052;2022-10-22T14:52:39;36.30;;;20.43;;
19171;SDS011;9718;52.200;21.052;2022-10-22T14:55:10;34.57;;;18.30;;
19171;SDS011;9718;52.200;21.052;2022-10-22T14:57:38;36.97;;;19.40;;
19171;SDS011;9718;52.200;21.052;2022-10-22T15:00:07;38.53;;;19.33;;
19171;SDS011;9718;52.200;21.052;2022-10-22T15:02:39;36.10;;;18.83;;
19171;SDS011;9718;52.200;21.052;2022-10-22T15:05:07;41.17;;;20.60;;
19171;SDS011;9718;52.200;21.052;2022-10-22T15:07:34;43.67;;;20.73;;
19171;SDS011;9718;52.200;21.052;2022-10-22T15:10:02;42.90;;;20.03;;
19171;SDS011;9718;52.200;21.052;2022-10-22T15:12:30;42.07;;;20.83;;
19171;SDS011;9718;52.200;21.052;2022-10-22T15:14:57;42.63;;;20.27;;
19171;SDS011;9718;52.200;21.052;2022-10-22T15:17:24;39.17;;;20.13;;
19171;SDS011;9718;52.200;21.052;2022-10-22T15:19:51;40.23;;;21.00;;
19171;SDS011;9718;52.200;21.052;2022-10-22T15:22:19;43.03;;;22.73;;
19171;SDS011;9718;52.200;21.052;2022-10-22T15:24:46;40.27;;;20.27;;
19171;SDS011;9718;52.200;21.052;2022-10-22T15:27:15;37.83;;;20.33;;
19171;SDS011;9718;52.200;21.052;2022-10-22T15:29:42;44.60;;;21.17;;
19171;SDS011;9718;52.200;21.052;2022-10-22T15:32:09;44.47;;;21.30;;
19171;SDS011;9718;52.200;21.052;2022-10-22T15:34:36;42.57;;;21.73;;
19171;SDS011;9718;52.200;21.052;2022-10-22T15:37:06;41.73;;;21.27;;
19171;SDS011;9718;52.200;21.052;2022-10-22T15:39:37;40.47;;;20.73;;
19171;SDS011;9718;52.200;21.052;2022-10-22T15:42:08;43.77;;;20.20;;
19171;SDS011;9718;52.200;21.052;2022-10-22T15:44:35;45.97;;;21.53;;
19171;SDS011;9718;52.200;21.052;2022-10-22T15:47:05;41.57;;;21.63;;
19171;SDS011;9718;52.200;21.052;2022-10-22T15:49:34;41.97;;;21.07;;
19171;SDS011;9718;52.200;21.052;2022-10-22T15:52:03;42.40;;;20.63;;
19171;SDS011;9718;52.200;21.052;2022-10-22T15:54:31;42.30;;;21.47;;
19171;SDS011;9718;52.200;21.052;2022-10-22T15:56:59;45.47;;;21.27;;
19171;SDS011;9718;52.200;21.052;2022-10-22T15:59:33;45.60;;;21.60;;
19171;SDS011;9718;52.200;21.052;2022-10-22T16:02:01;43.03;;;21.40;;
19171;SDS011;9718;52.200;21.052;2022-10-22T16:04:28;40.97;;;21.23;;
19171;SDS011;9718;52.200;21.052;2022-10-22T16:06:56;38.90;;;21.57;;
19171;SDS011;9718;52.200;21.052;2022-10-22T16:09:24;45.77;;;21.53;;
19171;SDS011;9718;52.200;21.052;2022-10-22T16:11:52;43.63;;;21.77;;
19171;SDS011;9718;52.200;21.052;2022-10-22T16:14:20;39.50;;;20.90;;
19171;SDS011;9718;52.200;21.052;2022-10-22T16:16:50;38.60;;;21.80;;
19171;SDS011;9718;52.200;21.052;2022-10-22T16:19:19;47.07;;;22.93;;
19171;SDS011;9718;52.200;21.052;2022-10-22T16:21:48;53.93;;;22.67;;